createdAt,value
2016-12-13T00:00:18.952Z,7.8
2016-12-13T00:01:18.872Z,7.61
2016-12-13T00:02:18.823Z,7.74
2016-12-13T00:03:18.964Z,7.77
2016-12-13T00:04:18.973Z,7.74
2016-12-13T00:05:18.916Z,7.75
2016-12-13T00:06:18.962Z,7.75
2016-12-13T00:07:18.964Z,7.73
2016-12-13T00:08:18.831Z,7.71
2016-12-13T00:09:18.972Z,7.68
2016-12-13T00:10:18.902Z,7.58
2016-12-13T00:11:18.894Z,7.77
2016-12-13T00:12:18.988Z,7.77
2016-12-13T00:13:18.922Z,7.73
2016-12-13T00:14:18.833Z,7.74
2016-12-13T00:15:18.944Z,7.68
2016-12-13T00:16:18.914Z,7.73
2016-12-13T00:17:18.862Z,7.7
2016-12-13T00:18:18.839Z,7.64
2016-12-13T00:19:18.936Z,7.7
2016-12-13T00:20:18.939Z,7.71
2016-12-13T00:21:18.871Z,7.61
2016-12-13T00:22:18.929Z,7.59
2016-12-13T00:23:18.926Z,7.67
2016-12-13T00:24:19.004Z,7.73
2016-12-13T00:25:18.957Z,7.61
2016-12-13T00:26:19.015Z,7.63
2016-12-13T00:27:18.961Z,7.63
2016-12-13T00:28:18.925Z,7.68
2016-12-13T00:29:18.893Z,7.67
2016-12-13T00:30:19.019Z,7.59
2016-12-13T00:31:18.914Z,7.7
2016-12-13T00:32:18.963Z,7.64
2016-12-13T00:33:18.983Z,7.67
2016-12-13T00:34:18.978Z,7.55
2016-12-13T00:35:18.896Z,7.55
2016-12-13T00:36:18.983Z,7.58
2016-12-13T00:37:18.983Z,7.59
2016-12-13T00:38:19.024Z,7.56
2016-12-13T00:39:18.987Z,7.56
2016-12-13T00:40:19.066Z,7.54
2016-12-13T00:41:18.999Z,7.58
2016-12-13T00:42:19.025Z,7.64
2016-12-13T00:43:19.064Z,7.64
2016-12-13T00:44:19.068Z,7.56
2016-12-13T00:45:19.072Z,7.51
2016-12-13T00:46:19.007Z,7.54
2016-12-13T00:47:19.028Z,7.63
2016-12-13T00:48:18.931Z,7.59
2016-12-13T00:49:18.934Z,7.61
2016-12-13T00:50:19.104Z,7.67
2016-12-13T00:51:19.032Z,7.55
2016-12-13T00:52:19.108Z,7.59
2016-12-13T00:53:19.034Z,7.52
2016-12-13T00:54:19.034Z,7.61
2016-12-13T00:55:18.951Z,7.52
2016-12-13T00:56:19.035Z,7.56
2016-12-13T00:57:19.033Z,7.52
2016-12-13T00:58:19.109Z,7.52
2016-12-13T00:59:19.133Z,7.56
2016-12-13T01:00:18.973Z,7.49
2016-12-13T01:01:19.205Z,7.48
2016-12-13T01:02:19.195Z,7.55
2016-12-13T01:03:19.174Z,7.58
2016-12-13T01:04:19.138Z,7.48
2016-12-13T01:05:19.119Z,7.47
2016-12-13T01:06:19.182Z,7.49
2016-12-13T01:07:19.064Z,7.44
2016-12-13T01:08:19.192Z,7.51
2016-12-13T01:09:19.102Z,7.54
2016-12-13T01:10:19.083Z,7.49
2016-12-13T01:11:19.079Z,7.48
2016-12-13T01:12:19.069Z,7.45
2016-12-13T01:13:19.074Z,7.45
2016-12-13T01:14:19.002Z,7.45
2016-12-13T01:15:19.017Z,7.41
2016-12-13T01:16:19.095Z,7.45
2016-12-13T01:17:19.007Z,7.41
2016-12-13T01:18:19.088Z,7.52
2016-12-13T01:19:19.066Z,7.45
2016-12-13T01:20:19.099Z,7.4
2016-12-13T01:21:19.197Z,7.36
2016-12-13T01:22:19.111Z,7.51
2016-12-13T01:23:19.121Z,7.4
2016-12-13T01:24:19.132Z,7.47
2016-12-13T01:25:19.094Z,7.37
2016-12-13T01:26:19.028Z,7.39
2016-12-13T01:27:19.083Z,7.41
2016-12-13T01:28:19.042Z,7.48
2016-12-13T01:29:19.124Z,7.45
2016-12-13T01:30:19.530Z,7.45
2016-12-13T01:31:19.150Z,7.44
2016-12-13T01:32:19.192Z,7.48
2016-12-13T01:33:19.057Z,7.36
2016-12-13T01:34:19.074Z,7.37
2016-12-13T01:35:19.197Z,7.3
2016-12-13T01:36:19.142Z,7.48
2016-12-13T01:37:19.246Z,7.49
2016-12-13T01:38:19.148Z,7.44
2016-12-13T01:39:19.160Z,7.41
2016-12-13T01:40:19.191Z,7.45
2016-12-13T01:41:19.161Z,7.36
2016-12-13T01:42:19.237Z,7.37
2016-12-13T01:43:19.247Z,7.33
2016-12-13T01:44:19.179Z,7.48
2016-12-13T01:45:19.163Z,7.51
2016-12-13T01:46:19.172Z,7.34
2016-12-13T01:47:19.090Z,7.41
2016-12-13T01:48:19.092Z,7.37
2016-12-13T01:49:19.179Z,7.39
2016-12-13T01:50:19.184Z,7.41
2016-12-13T01:51:19.161Z,7.41
2016-12-13T01:52:19.117Z,7.34
2016-12-13T01:53:19.170Z,7.44
2016-12-13T01:54:19.258Z,7.44
2016-12-13T01:55:19.144Z,7.41
2016-12-13T01:56:19.208Z,7.48
2016-12-13T01:57:19.116Z,7.44
2016-12-13T01:58:19.220Z,7.36
2016-12-13T01:59:19.310Z,7.33
2016-12-13T02:00:19.198Z,7.39
2016-12-13T02:01:19.291Z,7.34
2016-12-13T02:02:19.299Z,7.39
2016-12-13T02:03:19.326Z,7.37
2016-12-13T02:04:19.235Z,7.23
2016-12-13T02:05:19.297Z,7.4
2016-12-13T02:06:19.321Z,7.33
2016-12-13T02:07:19.280Z,7.41
2016-12-13T02:08:19.240Z,7.44
2016-12-13T02:09:19.248Z,7.4
2016-12-13T02:10:19.310Z,7.36
2016-12-13T02:11:19.379Z,7.3
2016-12-13T02:12:19.255Z,7.4
2016-12-13T02:13:19.163Z,7.44
2016-12-13T02:14:19.242Z,7.39
2016-12-13T02:15:19.267Z,7.3
2016-12-13T02:16:19.184Z,7.3
2016-12-13T02:17:19.265Z,7.31
2016-12-13T02:18:19.275Z,7.41
2016-12-13T02:19:19.274Z,7.36
2016-12-13T02:20:19.267Z,7.36
2016-12-13T02:21:19.341Z,7.41
2016-12-13T02:22:19.199Z,7.37
2016-12-13T02:23:19.320Z,7.41
2016-12-13T02:24:19.333Z,7.49
2016-12-13T02:25:19.269Z,7.39
2016-12-13T02:26:19.352Z,7.41
2016-12-13T02:27:19.290Z,7.31
2016-12-13T02:28:19.243Z,7.45
2016-12-13T02:29:19.322Z,7.37
2016-12-13T02:30:19.217Z,7.4
2016-12-13T02:31:19.300Z,7.41
2016-12-13T02:32:19.358Z,7.52
2016-12-13T02:33:19.321Z,7.45
2016-12-13T02:34:19.283Z,7.34
2016-12-13T02:35:19.396Z,7.39
2016-12-13T02:36:19.388Z,7.39
2016-12-13T02:37:19.319Z,7.36
2016-12-13T02:38:19.395Z,7.41
2016-12-13T02:39:19.266Z,7.47
2016-12-13T02:40:19.318Z,7.36
2016-12-13T02:41:19.258Z,7.34
2016-12-13T02:42:19.345Z,7.44
2016-12-13T02:43:19.349Z,7.22
2016-12-13T02:44:19.381Z,7.3
2016-12-13T02:45:19.343Z,7.37
2016-12-13T02:46:19.339Z,7.34
2016-12-13T02:47:19.329Z,7.33
2016-12-13T02:48:19.375Z,7.22
2016-12-13T02:49:19.431Z,7.36
2016-12-13T02:50:19.427Z,7.39
2016-12-13T02:51:19.337Z,7.39
2016-12-13T02:52:19.356Z,7.31
2016-12-13T02:53:19.291Z,7.33
2016-12-13T02:54:19.431Z,7.23
2016-12-13T02:55:19.460Z,7.21
2016-12-13T02:56:19.287Z,7.37
2016-12-13T02:57:19.299Z,7.31
2016-12-13T02:58:19.371Z,7.22
2016-12-13T02:59:19.384Z,7.3
2016-12-13T03:00:19.372Z,7.26
2016-12-13T03:01:19.380Z,7.22
2016-12-13T03:02:19.384Z,7.3
2016-12-13T03:03:20.031Z,7.16
2016-12-13T03:04:19.445Z,7.22
2016-12-13T03:05:19.383Z,7.21
2016-12-13T03:06:19.465Z,7.19
2016-12-13T03:07:19.311Z,7.16
2016-12-13T03:08:19.315Z,7.18
2016-12-13T03:09:19.401Z,7.16
2016-12-13T03:10:19.401Z,7.15
2016-12-13T03:11:19.463Z,7.19
2016-12-13T03:12:19.398Z,7.16
2016-12-13T03:13:19.335Z,7.19
2016-12-13T03:14:19.475Z,7.11
2016-12-13T03:15:19.402Z,7.12
2016-12-13T03:16:19.712Z,7.15
2016-12-13T03:17:19.412Z,7.08
2016-12-13T03:18:19.411Z,7.08
2016-12-13T03:19:19.342Z,7.03
2016-12-13T03:20:19.490Z,7.01
2016-12-13T03:21:19.360Z,6.97
2016-12-13T03:22:19.421Z,7.01
2016-12-13T03:23:19.357Z,6.95
2016-12-13T03:24:19.451Z,6.97
2016-12-13T03:25:19.494Z,6.85
2016-12-13T03:26:19.438Z,6.88
2016-12-13T03:27:19.400Z,6.88
2016-12-13T03:28:19.448Z,6.91
2016-12-13T03:29:19.434Z,6.76
2016-12-13T03:30:19.517Z,6.86
2016-12-13T03:31:19.368Z,6.86
2016-12-13T03:32:19.489Z,6.91
2016-12-13T03:33:19.444Z,6.82
2016-12-13T03:34:19.473Z,6.85
2016-12-13T03:35:19.380Z,6.94
2016-12-13T03:36:19.537Z,6.79
2016-12-13T03:37:19.387Z,6.72
2016-12-13T03:38:19.481Z,6.76
2016-12-13T03:39:19.482Z,6.73
2016-12-13T03:40:19.400Z,6.83
2016-12-13T03:41:19.396Z,6.85
2016-12-13T03:42:19.490Z,6.8
2016-12-13T03:43:19.610Z,6.83
2016-12-13T03:44:19.556Z,6.82
2016-12-13T03:45:19.477Z,6.75
2016-12-13T03:46:19.418Z,6.78
2016-12-13T03:47:19.433Z,6.78
2016-12-13T03:48:19.502Z,6.8
2016-12-13T03:49:19.504Z,6.8
2016-12-13T03:50:19.493Z,6.88
2016-12-13T03:51:19.566Z,6.85
2016-12-13T03:52:19.462Z,6.85
2016-12-13T03:53:19.528Z,6.8
2016-12-13T03:54:19.447Z,6.75
2016-12-13T03:55:19.537Z,6.73
2016-12-13T03:56:19.528Z,6.76
2016-12-13T03:57:19.453Z,6.75
2016-12-13T03:58:19.535Z,6.79
2016-12-13T03:59:19.484Z,6.73
2016-12-13T04:00:19.522Z,6.76
2016-12-13T04:01:19.528Z,6.73
2016-12-13T04:02:19.467Z,6.79
2016-12-13T04:03:19.463Z,6.75
2016-12-13T04:04:19.728Z,6.73
2016-12-13T04:05:19.481Z,6.76
2016-12-13T04:06:19.536Z,6.76
2016-12-13T04:07:19.542Z,6.8
2016-12-13T04:08:19.478Z,6.72
2016-12-13T04:09:19.563Z,6.79
2016-12-13T04:10:19.556Z,6.68
2016-12-13T04:11:19.484Z,6.78
2016-12-13T04:12:19.745Z,6.75
2016-12-13T04:13:19.640Z,6.64
2016-12-13T04:14:19.518Z,6.7
2016-12-13T04:15:19.521Z,6.7
2016-12-13T04:16:19.642Z,6.72
2016-12-13T04:17:19.571Z,6.76
2016-12-13T04:18:19.588Z,6.75
2016-12-13T04:19:19.612Z,6.79
2016-12-13T04:20:19.601Z,6.75
2016-12-13T04:21:19.578Z,6.73
2016-12-13T04:22:19.520Z,6.67
2016-12-13T04:23:19.600Z,6.73
2016-12-13T04:24:19.588Z,6.61
2016-12-13T04:25:19.599Z,6.73
2016-12-13T04:26:19.671Z,6.6
2016-12-13T04:27:19.601Z,6.7
2016-12-13T04:28:19.601Z,6.68
2016-12-13T04:29:19.686Z,6.67
2016-12-13T04:30:19.603Z,6.6
2016-12-13T04:31:19.654Z,6.78
2016-12-13T04:32:19.625Z,6.65
2016-12-13T04:33:19.618Z,6.73
2016-12-13T04:34:19.555Z,6.67
2016-12-13T04:35:19.623Z,6.7
2016-12-13T04:36:19.588Z,6.64
2016-12-13T04:37:19.626Z,6.6
2016-12-13T04:38:19.704Z,6.6
2016-12-13T04:39:19.715Z,6.55
2016-12-13T04:40:19.655Z,6.62
2016-12-13T04:41:19.639Z,6.7
2016-12-13T04:42:19.635Z,6.73
2016-12-13T04:43:19.631Z,6.65
2016-12-13T04:44:19.725Z,6.72
2016-12-13T04:45:19.667Z,6.75
2016-12-13T04:46:19.662Z,6.65
2016-12-13T04:47:19.767Z,6.65
2016-12-13T04:48:19.686Z,6.75
2016-12-13T04:49:19.732Z,6.75
2016-12-13T04:50:19.685Z,6.55
2016-12-13T04:51:19.702Z,6.73
2016-12-13T04:52:20.000Z,6.72
2016-12-13T04:53:19.683Z,6.61
2016-12-13T04:54:19.630Z,6.75
2016-12-13T04:55:19.837Z,6.82
2016-12-13T04:56:19.680Z,6.68
2016-12-13T04:57:19.767Z,6.73
2016-12-13T04:58:19.878Z,6.75
2016-12-13T04:59:19.628Z,6.72
2016-12-13T05:00:19.705Z,6.76
2016-12-13T05:01:19.782Z,6.67
2016-12-13T05:02:19.627Z,6.76
2016-12-13T05:03:19.792Z,6.76
2016-12-13T05:04:19.642Z,6.72
2016-12-13T05:05:19.718Z,6.76
2016-12-13T05:06:19.789Z,6.76
2016-12-13T05:07:19.803Z,6.78
2016-12-13T05:08:19.729Z,6.75
2016-12-13T05:09:19.724Z,6.79
2016-12-13T05:10:19.795Z,6.76
2016-12-13T05:11:19.721Z,6.8
2016-12-13T05:12:19.727Z,6.85
2016-12-13T05:13:19.730Z,6.86
2016-12-13T05:14:19.799Z,6.85
2016-12-13T05:15:19.746Z,6.86
2016-12-13T05:16:19.690Z,6.83
2016-12-13T05:17:19.751Z,6.8
2016-12-13T05:18:19.824Z,6.88
2016-12-13T05:19:19.935Z,6.85
2016-12-13T05:20:19.745Z,6.93
2016-12-13T05:21:19.757Z,6.95
2016-12-13T05:22:19.683Z,6.85
2016-12-13T05:23:19.675Z,6.83
2016-12-13T05:24:19.775Z,6.8
2016-12-13T05:25:19.772Z,6.8
2016-12-13T05:26:19.779Z,6.82
2016-12-13T05:27:19.838Z,6.85
2016-12-13T05:28:19.783Z,6.8
2016-12-13T05:29:19.774Z,6.83
2016-12-13T05:30:20.080Z,6.86
2016-12-13T05:31:19.843Z,6.8
2016-12-13T05:32:19.786Z,6.85
2016-12-13T05:33:19.848Z,6.79
2016-12-13T05:34:19.714Z,6.9
2016-12-13T05:35:19.808Z,6.9
2016-12-13T05:36:19.859Z,6.8
2016-12-13T05:37:19.872Z,6.88
2016-12-13T05:38:19.723Z,6.86
2016-12-13T05:39:19.811Z,6.86
2016-12-13T05:40:19.831Z,6.76
2016-12-13T05:41:19.884Z,6.82
2016-12-13T05:42:19.756Z,6.88
2016-12-13T05:43:19.808Z,6.8
2016-12-13T05:44:19.896Z,6.83
2016-12-13T05:45:19.831Z,6.94
2016-12-13T05:46:19.893Z,6.91
2016-12-13T05:47:19.911Z,6.85
2016-12-13T05:48:19.894Z,6.86
2016-12-13T05:49:19.761Z,6.9
2016-12-13T05:50:19.920Z,6.78
2016-12-13T05:51:19.814Z,6.8
2016-12-13T05:52:19.771Z,6.95
2016-12-13T05:53:19.848Z,6.82
2016-12-13T05:54:19.787Z,6.8
2016-12-13T05:55:19.853Z,6.8
2016-12-13T05:56:19.793Z,6.94
2016-12-13T05:57:19.781Z,6.83
2016-12-13T05:58:19.938Z,6.8
2016-12-13T05:59:19.860Z,6.83
2016-12-13T06:00:19.872Z,6.93
2016-12-13T06:01:19.856Z,6.86
2016-12-13T06:02:19.864Z,6.91
2016-12-13T06:03:19.899Z,6.95
2016-12-13T06:04:19.950Z,6.93
2016-12-13T06:05:19.949Z,6.94
2016-12-13T06:06:19.835Z,6.97
2016-12-13T06:07:19.908Z,6.91
2016-12-13T06:08:19.877Z,6.9
2016-12-13T06:09:19.819Z,6.91
2016-12-13T06:10:19.964Z,6.95
2016-12-13T06:11:19.896Z,6.91
2016-12-13T06:12:19.900Z,6.88
2016-12-13T06:13:19.889Z,6.93
2016-12-13T06:14:19.891Z,6.88
2016-12-13T06:15:19.904Z,6.97
2016-12-13T06:16:19.914Z,6.93
2016-12-13T06:17:19.842Z,6.83
2016-12-13T06:18:19.853Z,6.9
2016-12-13T06:19:19.845Z,6.91
2016-12-13T06:20:19.861Z,6.94
2016-12-13T06:21:19.917Z,6.95
2016-12-13T06:22:19.935Z,6.94
2016-12-13T06:23:19.907Z,6.93
2016-12-13T06:24:19.935Z,7.03
2016-12-13T06:25:19.934Z,7
2016-12-13T06:26:19.864Z,7
2016-12-13T06:27:20.006Z,7.03
2016-12-13T06:28:19.950Z,6.97
2016-12-13T06:29:19.933Z,6.98
2016-12-13T06:30:19.957Z,7.04
2016-12-13T06:31:20.001Z,7.03
2016-12-13T06:32:19.889Z,6.98
2016-12-13T06:33:19.946Z,7.05
2016-12-13T06:34:19.954Z,7
2016-12-13T06:35:19.962Z,6.94
2016-12-13T06:36:19.887Z,7.03
2016-12-13T06:37:19.889Z,7.09
2016-12-13T06:38:20.014Z,7.01
2016-12-13T06:39:20.087Z,6.94
2016-12-13T06:40:19.896Z,6.95
2016-12-13T06:41:19.982Z,6.95
2016-12-13T06:42:19.902Z,7
2016-12-13T06:43:19.987Z,6.95
2016-12-13T06:44:20.022Z,6.97
2016-12-13T06:45:20.110Z,7.03
2016-12-13T06:46:20.113Z,6.98
2016-12-13T06:47:19.998Z,7.08
2016-12-13T06:48:19.940Z,7.05
2016-12-13T06:49:20.001Z,7.04
2016-12-13T06:50:20.067Z,7
2016-12-13T06:51:19.932Z,7.12
2016-12-13T06:52:20.001Z,7
2016-12-13T06:53:19.934Z,7.11
2016-12-13T06:54:19.944Z,7.03
2016-12-13T06:55:20.161Z,7.12
2016-12-13T06:56:20.024Z,7.09
2016-12-13T06:57:19.943Z,7.12
2016-12-13T06:58:19.965Z,7.12
2016-12-13T06:59:20.194Z,7.09
2016-12-13T07:00:19.976Z,7.09
2016-12-13T07:01:19.973Z,7.03
2016-12-13T07:02:20.034Z,7.12
2016-12-13T07:03:20.068Z,7.05
2016-12-13T07:04:20.018Z,7.09
2016-12-13T07:05:20.139Z,7.13
2016-12-13T07:06:20.132Z,7.19
2016-12-13T07:07:20.081Z,7.09
2016-12-13T07:08:20.113Z,7.15
2016-12-13T07:09:19.990Z,7.18
2016-12-13T07:10:20.586Z,7.09
2016-12-13T07:11:20.306Z,7.05
2016-12-13T07:12:20.153Z,7.15
2016-12-13T07:13:20.090Z,7.13
2016-12-13T07:14:21.908Z,7.08
2016-12-13T07:15:20.691Z,7.13
2016-12-13T07:16:22.058Z,7.01
2016-12-13T07:17:20.133Z,7.15
2016-12-13T07:18:20.537Z,7.21
2016-12-13T07:19:20.006Z,7.26
2016-12-13T07:20:20.140Z,7.21
2016-12-13T07:21:20.103Z,7.22
2016-12-13T07:22:20.297Z,7.18
2016-12-13T07:23:20.142Z,7.12
2016-12-13T07:24:20.176Z,7.04
2016-12-13T07:25:20.111Z,7.11
2016-12-13T07:26:20.105Z,7.09
2016-12-13T07:27:20.091Z,6.98
2016-12-13T07:28:20.227Z,6.97
2016-12-13T07:29:20.161Z,6.93
2016-12-13T07:30:20.151Z,6.97
2016-12-13T07:31:20.196Z,6.86
2016-12-13T07:32:20.108Z,6.94
2016-12-13T07:33:20.158Z,6.88
2016-12-13T07:34:20.156Z,6.91
2016-12-13T07:35:20.062Z,6.85
2016-12-13T07:36:20.137Z,6.86
2016-12-13T07:37:20.138Z,6.83
2016-12-13T07:38:20.163Z,6.88
2016-12-13T07:39:20.059Z,6.93
2016-12-13T07:40:20.245Z,6.85
2016-12-13T07:41:20.095Z,6.94
2016-12-13T07:42:20.166Z,6.88
2016-12-13T07:43:20.231Z,6.86
2016-12-13T07:44:20.185Z,6.8
2016-12-13T07:45:20.246Z,6.91
2016-12-13T07:46:20.171Z,6.9
2016-12-13T07:47:20.178Z,6.93
2016-12-13T07:48:20.193Z,6.9
2016-12-13T07:49:20.453Z,6.9
2016-12-13T07:50:20.238Z,6.93
2016-12-13T07:51:20.176Z,6.9
2016-12-13T07:52:20.320Z,6.88
2016-12-13T07:53:20.184Z,6.98
2016-12-13T07:54:20.282Z,6.9
2016-12-13T07:55:20.186Z,6.93
2016-12-13T07:56:20.125Z,6.88
2016-12-13T07:57:20.270Z,6.86
2016-12-13T07:58:20.291Z,6.86
2016-12-13T07:59:20.364Z,6.9
2016-12-13T08:00:20.204Z,6.9
2016-12-13T08:01:20.338Z,6.85
2016-12-13T08:02:20.225Z,6.86
2016-12-13T08:03:20.241Z,6.95
2016-12-13T08:04:20.190Z,6.91
2016-12-13T08:05:20.446Z,6.93
2016-12-13T08:06:20.237Z,6.9
2016-12-13T08:07:20.380Z,6.91
2016-12-13T08:08:20.232Z,6.85
2016-12-13T08:09:20.308Z,6.93
2016-12-13T08:10:20.340Z,6.83
2016-12-13T08:11:20.170Z,6.88
2016-12-13T08:12:21.924Z,6.9
2016-12-13T08:13:22.844Z,6.97
2016-12-13T08:14:20.251Z,6.98
2016-12-13T08:15:20.276Z,6.98
2016-12-13T08:16:20.262Z,7.01
2016-12-13T08:17:20.333Z,6.91
2016-12-13T08:18:20.448Z,7
2016-12-13T08:19:20.384Z,6.97
2016-12-13T08:20:20.425Z,7.03
2016-12-13T08:21:20.287Z,7.08
2016-12-13T08:22:20.484Z,7.09
2016-12-13T08:23:20.349Z,6.97
2016-12-13T08:24:20.427Z,6.97
2016-12-13T08:25:20.325Z,7.05
2016-12-13T08:26:20.216Z,6.94
2016-12-13T08:27:20.270Z,6.97
2016-12-13T08:28:20.346Z,6.97
2016-12-13T08:29:20.291Z,7.03
2016-12-13T08:30:20.326Z,7.08
2016-12-13T08:31:20.300Z,7.12
2016-12-13T08:32:20.226Z,7.12
2016-12-13T08:33:20.369Z,7.05
2016-12-13T08:34:20.377Z,7.08
2016-12-13T08:35:20.334Z,7.09
2016-12-13T08:36:20.340Z,7.11
2016-12-13T08:37:20.356Z,7.13
2016-12-13T08:38:20.415Z,7.16
2016-12-13T08:39:20.365Z,7.16
2016-12-13T08:40:20.377Z,7.09
2016-12-13T08:41:20.380Z,6.98
2016-12-13T08:42:20.409Z,7.16
2016-12-13T08:43:20.327Z,7.05
2016-12-13T08:44:20.333Z,7.08
2016-12-13T08:45:21.172Z,7.08
2016-12-13T08:46:23.190Z,7.09
2016-12-13T08:47:22.097Z,7.11
2016-12-13T08:48:21.145Z,7.11
2016-12-13T08:49:20.398Z,7.04
2016-12-13T08:50:20.442Z,7.19
2016-12-13T08:51:20.607Z,7.15
2016-12-13T08:52:20.478Z,7.16
2016-12-13T08:53:21.662Z,7.13
2016-12-13T08:54:20.412Z,7.09
2016-12-13T08:55:20.450Z,7.05
2016-12-13T08:56:20.439Z,7.11
2016-12-13T08:57:20.636Z,7.22
2016-12-13T08:58:20.388Z,7.23
2016-12-13T08:59:20.400Z,7.18
2016-12-13T09:00:20.389Z,7.22
2016-12-13T09:01:20.430Z,7.21
2016-12-13T09:02:20.404Z,7.22
2016-12-13T09:03:20.391Z,7.33
2016-12-13T09:04:20.437Z,7.26
2016-12-13T09:05:20.421Z,7.26
2016-12-13T09:06:20.420Z,7.31
2016-12-13T09:07:20.476Z,7.26
2016-12-13T09:08:20.457Z,7.23
2016-12-13T09:09:20.371Z,7.4
2016-12-13T09:10:20.548Z,7.51
2016-12-13T09:11:20.427Z,7.29
2016-12-13T09:12:20.425Z,7.23
2016-12-13T09:13:20.527Z,7.39
2016-12-13T09:14:20.421Z,7.49
2016-12-13T09:15:20.452Z,7.37
2016-12-13T09:16:20.369Z,7.23
2016-12-13T09:17:20.484Z,7.23
2016-12-13T09:18:20.463Z,7.45
2016-12-13T09:19:20.638Z,7.4
2016-12-13T09:20:20.483Z,7.34
2016-12-13T09:21:21.399Z,7.31
2016-12-13T09:22:20.557Z,7.23
2016-12-13T09:23:23.586Z,7.44
2016-12-13T09:24:21.644Z,7.26
2016-12-13T09:25:20.456Z,7.27
2016-12-13T09:26:20.515Z,7.4
2016-12-13T09:27:20.385Z,7.4
2016-12-13T09:28:20.367Z,7.31
2016-12-13T09:29:20.708Z,7.36
2016-12-13T09:30:20.595Z,7.44
2016-12-13T09:31:20.534Z,7.4
2016-12-13T09:32:20.495Z,7.36
2016-12-13T09:33:20.477Z,7.22
2016-12-13T09:34:20.624Z,7.34
2016-12-13T09:35:20.621Z,7.45
2016-12-13T09:36:20.544Z,7.45
2016-12-13T09:37:20.693Z,7.34
2016-12-13T09:38:20.465Z,7.41
2016-12-13T09:39:20.625Z,7.39
2016-12-13T09:40:20.601Z,7.37
2016-12-13T09:41:20.545Z,7.31
2016-12-13T09:42:20.693Z,7.26
2016-12-13T09:43:21.441Z,7.44
2016-12-13T09:44:20.475Z,7.4
2016-12-13T09:45:20.823Z,7.33
2016-12-13T09:46:20.595Z,7.26
2016-12-13T09:47:20.641Z,7.45
2016-12-13T09:48:20.434Z,7.45
2016-12-13T09:49:20.595Z,7.44
2016-12-13T09:50:20.723Z,7.48
2016-12-13T09:51:20.498Z,7.23
2016-12-13T09:52:20.725Z,7.37
2016-12-13T09:53:20.531Z,7.33
2016-12-13T09:54:20.574Z,7.36
2016-12-13T09:55:20.599Z,7.29
2016-12-13T09:56:20.551Z,7.39
2016-12-13T09:57:20.649Z,7.45
2016-12-13T09:58:20.767Z,7.44
2016-12-13T09:59:20.658Z,7.33
2016-12-13T10:00:22.155Z,7.41
2016-12-13T10:01:30.505Z,7.45
2016-12-13T10:02:21.784Z,7.36
2016-12-13T10:03:22.155Z,7.34
2016-12-13T10:04:22.213Z,7.29
2016-12-13T10:05:23.175Z,7.37
2016-12-13T10:06:22.191Z,7.22
2016-12-13T10:07:22.617Z,7.33
2016-12-13T10:08:21.204Z,7.31
2016-12-13T10:09:21.135Z,7.26
2016-12-13T10:10:43.011Z,7.31
2016-12-13T10:11:21.122Z,7.21
2016-12-13T10:12:21.944Z,7.19
2016-12-13T10:13:20.963Z,7.29
2016-12-13T10:14:21.105Z,7.27
2016-12-13T10:15:21.153Z,7.11
2016-12-13T10:16:27.845Z,7.09
2016-12-13T10:17:21.453Z,7.19
2016-12-13T10:18:23.807Z,7.08
2016-12-13T10:19:25.889Z,7.08
2016-12-13T10:20:21.761Z,7.12
2016-12-13T10:21:23.153Z,7.08
2016-12-13T10:22:22.026Z,7
2016-12-13T10:23:23.324Z,6.98
2016-12-13T10:24:21.381Z,7
2016-12-13T10:25:21.492Z,6.97
2016-12-13T10:26:21.224Z,7.01
2016-12-13T10:27:22.004Z,7
2016-12-13T10:28:21.496Z,7.08
2016-12-13T10:29:21.168Z,7.13
2016-12-13T10:30:21.022Z,7.03
2016-12-13T10:31:22.293Z,7.01
2016-12-13T10:32:21.271Z,7.04
2016-12-13T10:33:21.326Z,7.04
2016-12-13T10:34:21.658Z,7.09
2016-12-13T10:35:21.261Z,7.04
2016-12-13T10:36:21.823Z,7.12
2016-12-13T10:37:21.121Z,7.05
2016-12-13T10:38:21.223Z,7.09
2016-12-13T10:39:21.072Z,7.09
2016-12-13T10:40:22.754Z,7.01
2016-12-13T10:41:22.008Z,7.04
2016-12-13T10:42:21.067Z,7.04
2016-12-13T10:43:21.747Z,7.15
2016-12-13T10:44:21.525Z,7.05
2016-12-13T10:45:21.388Z,7.08
2016-12-13T10:46:22.321Z,7.13
2016-12-13T10:47:21.215Z,7.16
2016-12-13T10:48:21.417Z,7.23
2016-12-13T10:49:21.106Z,7.09
2016-12-13T10:50:21.057Z,7.05
2016-12-13T10:51:21.291Z,7.03
2016-12-13T10:52:21.242Z,7.13
2016-12-13T10:53:26.494Z,7
2016-12-13T10:54:21.305Z,6.97
2016-12-13T10:55:21.238Z,7
2016-12-13T10:56:21.086Z,7.03
2016-12-13T10:57:21.723Z,7.03
2016-12-13T10:58:21.439Z,6.97
2016-12-13T10:59:21.297Z,6.95
2016-12-13T11:00:22.162Z,7.01
2016-12-13T11:01:21.241Z,7.01
2016-12-13T11:02:21.369Z,7
2016-12-13T11:03:21.079Z,7.01
2016-12-13T11:04:20.862Z,7.04
2016-12-13T11:05:21.474Z,7.05
2016-12-13T11:06:21.041Z,7.01
2016-12-13T11:07:21.921Z,7.04
2016-12-13T11:08:21.275Z,6.98
2016-12-13T11:09:21.398Z,7
2016-12-13T11:10:22.515Z,7
2016-12-13T11:11:20.881Z,6.98
2016-12-13T11:12:20.827Z,7.03
2016-12-13T11:13:20.898Z,6.95
2016-12-13T11:14:21.141Z,6.93
2016-12-13T11:15:20.780Z,6.93
2016-12-13T11:16:20.821Z,7.01
2016-12-13T11:17:20.874Z,6.98
2016-12-13T11:18:21.567Z,7
2016-12-13T11:19:20.745Z,6.97
2016-12-13T11:20:20.768Z,7
2016-12-13T11:21:20.812Z,6.93
2016-12-13T11:22:20.860Z,6.93
2016-12-13T11:23:20.932Z,6.93
2016-12-13T11:24:20.779Z,6.57
2016-12-13T11:25:20.986Z,6.93
2016-12-13T11:26:20.972Z,6.9
2016-12-13T11:27:21.643Z,6.88
2016-12-13T11:28:20.786Z,6.86
2016-12-13T11:29:20.995Z,6.82
2016-12-13T11:30:20.736Z,6.88
2016-12-13T11:31:20.947Z,6.93
2016-12-13T11:32:20.811Z,6.88
2016-12-13T11:33:20.865Z,6.82
2016-12-13T11:34:20.881Z,6.91
2016-12-13T11:35:20.843Z,6.91
2016-12-13T11:36:20.739Z,6.93
2016-12-13T11:37:20.813Z,6.86
2016-12-13T11:38:20.807Z,6.83
2016-12-13T11:39:20.831Z,6.65
2016-12-13T11:40:20.967Z,6.88
2016-12-13T11:41:20.901Z,6.95
2016-12-13T11:42:21.003Z,6.86
2016-12-13T11:43:20.922Z,6.83
2016-12-13T11:44:20.860Z,6.8
2016-12-13T11:45:21.022Z,6.9
2016-12-13T11:46:20.904Z,6.91
2016-12-13T11:47:21.566Z,6.9
2016-12-13T11:48:20.866Z,6.97
2016-12-13T11:49:20.979Z,6.91
2016-12-13T11:50:20.902Z,6.94
2016-12-13T11:51:20.927Z,6.95
2016-12-13T11:52:20.828Z,6.93
2016-12-13T11:53:20.838Z,6.91
2016-12-13T11:54:20.798Z,6.88
2016-12-13T11:55:21.037Z,6.88
2016-12-13T11:56:20.995Z,6.93
2016-12-13T11:57:20.866Z,6.94
2016-12-13T11:58:20.795Z,6.94
2016-12-13T11:59:21.006Z,6.93
2016-12-13T12:00:21.048Z,6.94
2016-12-13T12:01:20.841Z,6.98
2016-12-13T12:02:20.941Z,6.93
2016-12-13T12:03:20.886Z,6.97
2016-12-13T12:04:20.996Z,6.98
2016-12-13T12:05:20.852Z,7
2016-12-13T12:06:20.849Z,6.83
2016-12-13T12:07:20.864Z,6.94
2016-12-13T12:08:20.987Z,6.97
2016-12-13T12:09:20.908Z,6.88
2016-12-13T12:10:21.027Z,6.9
2016-12-13T12:11:20.998Z,6.88
2016-12-13T12:12:21.045Z,6.95
2016-12-13T12:13:21.063Z,6.86
2016-12-13T12:14:21.135Z,6.9
2016-12-13T12:15:21.096Z,6.85
2016-12-13T12:16:20.914Z,6.91
2016-12-13T12:17:21.102Z,6.91
2016-12-13T12:18:20.928Z,6.94
2016-12-13T12:19:20.887Z,6.95
2016-12-13T12:20:20.984Z,6.86
2016-12-13T12:21:20.902Z,6.91
2016-12-13T12:22:20.896Z,6.88
2016-12-13T12:23:20.962Z,6.98
2016-12-13T12:24:20.936Z,6.91
2016-12-13T12:25:21.123Z,6.93
2016-12-13T12:26:21.056Z,6.91
2016-12-13T12:27:21.930Z,6.88
2016-12-13T12:28:21.090Z,6.93
2016-12-13T12:29:21.032Z,6.98
2016-12-13T12:30:21.104Z,6.93
2016-12-13T12:31:21.300Z,6.93
2016-12-13T12:32:21.055Z,6.94
2016-12-13T12:33:21.097Z,6.95
2016-12-13T12:34:21.090Z,6.88
2016-12-13T12:35:21.130Z,6.97
2016-12-13T12:36:20.924Z,6.9
2016-12-13T12:37:21.125Z,6.88
2016-12-13T12:38:21.288Z,6.9
2016-12-13T12:39:21.125Z,6.94
2016-12-13T12:40:21.225Z,6.82
2016-12-13T12:41:21.317Z,6.98
2016-12-13T12:42:21.145Z,6.93
2016-12-13T12:43:21.219Z,6.93
2016-12-13T12:44:21.123Z,6.97
2016-12-13T12:45:20.945Z,6.93
2016-12-13T12:46:21.095Z,6.9
2016-12-13T12:47:21.034Z,6.86
2016-12-13T12:48:21.029Z,6.97
2016-12-13T12:49:21.013Z,7
2016-12-13T12:50:21.328Z,6.97
2016-12-13T12:51:20.982Z,7.01
2016-12-13T12:52:21.179Z,6.94
2016-12-13T12:53:21.065Z,6.95
2016-12-13T12:54:21.170Z,7.05
2016-12-13T12:55:21.087Z,7.01
2016-12-13T12:56:21.062Z,6.97
2016-12-13T12:57:21.208Z,7.05
2016-12-13T12:58:21.178Z,7.11
2016-12-13T12:59:21.103Z,7.12
2016-12-13T13:00:21.321Z,7.11
2016-12-13T13:01:21.158Z,7.04
2016-12-13T13:02:23.832Z,7.23
2016-12-13T13:03:21.256Z,7.12
2016-12-13T13:04:23.073Z,7.04
2016-12-13T13:05:22.216Z,7.18
2016-12-13T13:06:21.783Z,7.09
2016-12-13T13:07:21.660Z,7.05
2016-12-13T13:08:21.553Z,7.16
2016-12-13T13:09:21.232Z,7.09
2016-12-13T13:10:21.291Z,7.16
2016-12-13T13:11:22.240Z,7.11
2016-12-13T13:12:21.740Z,7.19
2016-12-13T13:13:22.247Z,7.16
2016-12-13T13:14:21.855Z,7.26
2016-12-13T13:15:21.638Z,7.18
2016-12-13T13:16:21.292Z,7.13
2016-12-13T13:17:21.246Z,7.16
2016-12-13T13:18:21.129Z,7.18
2016-12-13T13:19:21.106Z,7.11
2016-12-13T13:20:21.248Z,7.29
2016-12-13T13:21:21.111Z,7.22
2016-12-13T13:22:21.137Z,7.19